createdAt,value
2022-12-12T00:01:59.438Z,100521.88
2022-12-12T00:07:00.807Z,100521.78
2022-12-12T00:12:02.141Z,100525.03
2022-12-12T00:17:03.503Z,100527.91
2022-12-12T00:22:04.854Z,100529.66
2022-12-12T00:27:06.254Z,100525.59
2022-12-12T00:32:07.636Z,100529.91
2022-12-12T00:37:08.952Z,100530.41
2022-12-12T00:42:10.287Z,100533.97
2022-12-12T00:47:11.629Z,100537.72
2022-12-12T00:52:13.853Z,100533.06
2022-12-12T00:57:15.256Z,100543.47
2022-12-12T01:02:16.599Z,100541.72
2022-12-12T01:07:17.923Z,100543.22
2022-12-12T01:12:19.271Z,100545.56
2022-12-12T01:17:20.689Z,100557.19
2022-12-12T01:22:23.380Z,100556.31
2022-12-12T01:27:24.725Z,100555.75
2022-12-12T01:32:26.040Z,100555.88
2022-12-12T01:37:27.425Z,100561.00
2022-12-12T01:42:29.131Z,100566.25
2022-12-12T01:47:30.442Z,100572.88
2022-12-12T01:52:39.441Z,100569.47
2022-12-12T01:57:44.039Z,100567.53
2022-12-12T02:02:46.299Z,100573.34
2022-12-12T02:07:47.683Z,100575.31
2022-12-12T02:12:49.144Z,100577.63
2022-12-12T02:17:56.759Z,100579.97
2022-12-12T02:23:07.164Z,100581.03
2022-12-12T02:28:11.497Z,100573.81
2022-12-12T02:33:15.960Z,100582.41
2022-12-12T02:38:36.084Z,100579.63
2022-12-12T02:43:40.467Z,100581.84
2022-12-12T02:48:44.799Z,100575.09
2022-12-12T02:53:46.249Z,100573.00
2022-12-12T02:58:47.861Z,100573.13
2022-12-12T03:04:16.875Z,100565.06
2022-12-12T03:09:18.194Z,100568.78
2022-12-12T03:14:51.886Z,100580.47
2022-12-12T03:20:03.926Z,100574.50
2022-12-12T03:25:11.587Z,100585.81
2022-12-12T03:30:16.079Z,100579.88
2022-12-12T03:35:24.593Z,100583.59
2022-12-12T03:40:35.808Z,100581.84
2022-12-12T03:45:41.054Z,100577.06
2022-12-12T03:50:49.550Z,100572.06
2022-12-12T03:55:59.206Z,100586.38
2022-12-12T04:01:04.434Z,100581.03
2022-12-12T04:06:27.897Z,100587.78
2022-12-12T04:11:52.863Z,100578.91
2022-12-12T04:17:03.162Z,100582.41
2022-12-12T04:22:27.228Z,100585.06
2022-12-12T04:27:30.642Z,100587.47
2022-12-12T04:32:41.074Z,100585.06
2022-12-12T04:37:54.097Z,100598.75
2022-12-12T04:43:01.496Z,100598.81
2022-12-12T04:48:05.746Z,100608.88
2022-12-12T04:53:14.861Z,100614.19
2022-12-12T04:58:19.724Z,100614.31
2022-12-12T05:03:23.858Z,100615.69
2022-12-12T05:08:30.515Z,100621.47
2022-12-12T05:13:40.726Z,100620.41
2022-12-12T05:18:42.076Z,100629.69
2022-12-12T05:23:43.449Z,100624.41
2022-12-12T05:28:44.763Z,100633.09
2022-12-12T05:33:46.489Z,100634.22
2022-12-12T05:38:47.925Z,100633.22
2022-12-12T05:43:49.322Z,100641.47
2022-12-12T05:48:50.870Z,100637.69
2022-12-12T05:53:52.291Z,100645.31
2022-12-12T05:58:53.613Z,100641.09
2022-12-12T06:03:54.957Z,100646.00
2022-12-12T06:08:56.390Z,100648.00
2022-12-12T06:13:57.773Z,100651.06
2022-12-12T06:18:59.102Z,100657.38
2022-12-12T06:24:00.431Z,100658.22
2022-12-12T06:29:01.783Z,100658.44
2022-12-12T06:34:03.145Z,100658.59
2022-12-12T06:39:04.486Z,100663.66
2022-12-12T06:44:06.220Z,100673.44
2022-12-12T06:49:09.884Z,100671.59
2022-12-12T06:54:15.551Z,100682.41
2022-12-12T06:59:16.942Z,100678.94
2022-12-12T07:04:18.270Z,100684.66
2022-12-12T07:09:20.529Z,100684.94
2022-12-12T07:14:21.954Z,100694.06
2022-12-12T07:19:23.265Z,100684.38
2022-12-12T07:24:24.571Z,100688.56
2022-12-12T07:29:25.972Z,100691.94
2022-12-12T07:34:29.021Z,100702.47
2022-12-12T07:39:31.272Z,100694.25
2022-12-12T07:44:32.637Z,100694.25
2022-12-12T07:49:34.090Z,100699.88
2022-12-12T07:54:35.427Z,100706.88
2022-12-12T07:59:36.788Z,100708.06
2022-12-12T08:04:38.235Z,100708.47
2022-12-12T08:09:40.181Z,100718.19
2022-12-12T08:14:41.490Z,100714.44
2022-12-12T08:19:42.838Z,100724.19
2022-12-12T08:24:44.147Z,100717.78
2022-12-12T08:29:45.566Z,100719.94
2022-12-12T08:34:47.904Z,100723.19
2022-12-12T08:39:52.809Z,100722.53
2022-12-12T08:44:56.841Z,100726.47
2022-12-12T08:49:58.160Z,100732.13
2022-12-12T08:54:59.509Z,100737.09
2022-12-12T09:00:00.817Z,100740.84
2022-12-12T09:05:02.108Z,100741.19
2022-12-12T09:10:04.718Z,100749.47
2022-12-12T09:15:06.322Z,100759.41
2022-12-12T09:20:07.821Z,100756.72
2022-12-12T09:25:10.463Z,100764.28
2022-12-12T09:30:12.126Z,100765.78
2022-12-12T09:35:13.661Z,100764.25
2022-12-12T09:40:19.523Z,100771.53
2022-12-12T09:45:21.003Z,100767.47
2022-12-12T09:50:34.507Z,100763.94
2022-12-12T09:55:41.805Z,100761.97
2022-12-12T10:00:47.436Z,100758.56
2022-12-12T10:06:35.433Z,100762.66
2022-12-12T10:11:50.166Z,100756.97
2022-12-12T10:16:57.587Z,100761.22
2022-12-12T10:22:06.514Z,100743.66
2022-12-12T10:27:11.963Z,100742.47
2022-12-12T10:32:28.571Z,100749.56
2022-12-12T10:37:43.248Z,100743.25
2022-12-12T10:42:53.995Z,100745.25
2022-12-12T10:47:55.328Z,100731.38
2022-12-12T10:52:56.625Z,100719.75
2022-12-12T10:58:04.639Z,100723.09
2022-12-12T11:03:19.870Z,100727.84
2022-12-12T11:08:31.320Z,100724.94
2022-12-12T11:13:39.010Z,100715.03
2022-12-12T11:18:40.401Z,100716.22
2022-12-12T11:23:47.623Z,100712.44
2022-12-12T11:29:00.846Z,100718.13
2022-12-12T11:34:04.313Z,100712.75
2022-12-12T11:39:14.477Z,100714.91
2022-12-12T11:44:23.191Z,100706.16
2022-12-12T11:49:24.573Z,100700.81
2022-12-12T11:54:29.417Z,100699.66
2022-12-12T11:59:30.714Z,100688.34
2022-12-12T12:04:41.329Z,100680.19
2022-12-12T12:09:48.645Z,100676.28
2022-12-12T12:14:50.218Z,100657.50
2022-12-12T12:20:10.548Z,100663.19
2022-12-12T12:25:12.179Z,100671.06
2022-12-12T12:30:16.712Z,100672.34
2022-12-12T12:35:24.119Z,100662.09
2022-12-12T12:40:45.821Z,100658.41
2022-12-12T12:45:49.788Z,100664.81
2022-12-12T12:51:00.232Z,100656.78
2022-12-12T12:56:03.836Z,100661.66
2022-12-12T13:01:08.875Z,100660.03
2022-12-12T13:06:15.493Z,100647.47
2022-12-12T13:11:49.074Z,100638.22
2022-12-12T13:16:51.556Z,100639.94
2022-12-12T13:21:57.313Z,100644.16
2022-12-12T13:27:11.767Z,100642.91
2022-12-12T13:32:22.878Z,100647.81
2022-12-12T13:37:24.256Z,100648.91
2022-12-12T13:42:25.656Z,100648.59
2022-12-12T13:47:27.010Z,100645.25
2022-12-12T13:52:32.800Z,100632.94
2022-12-12T13:57:34.152Z,100621.56
2022-12-12T14:02:37.225Z,100634.13
2022-12-12T14:07:39.669Z,100643.53
2022-12-12T14:12:41.151Z,100633.47
2022-12-12T14:17:50.640Z,100632.34
2022-12-12T14:22:51.938Z,100621.66
2022-12-12T14:27:53.969Z,100633.81
2022-12-12T14:33:04.010Z,100643.91
2022-12-12T14:38:31.681Z,100648.06
2022-12-12T14:43:40.260Z,100648.00
2022-12-12T14:48:41.728Z,100650.28
2022-12-12T14:53:47.969Z,100647.38
2022-12-12T14:58:56.764Z,100645.84
2022-12-12T15:03:59.083Z,100656.72
2022-12-12T15:09:26.537Z,100647.81
2022-12-12T15:14:28.035Z,100664.94
2022-12-12T15:19:50.160Z,100661.63
2022-12-12T15:24:52.707Z,100672.22
2022-12-12T15:29:54.349Z,100671.47
2022-12-12T15:35:19.417Z,100674.47
2022-12-12T15:40:30.992Z,100678.03
2022-12-12T15:45:33.907Z,100666.50
2022-12-12T15:50:50.431Z,100663.97
2022-12-12T15:56:02.142Z,100665.81
2022-12-12T16:01:20.390Z,100671.16
2022-12-12T16:06:24.191Z,100677.69
2022-12-12T16:11:36.264Z,100676.28
2022-12-12T16:16:37.659Z,100682.06
2022-12-12T16:21:49.423Z,100690.53
2022-12-12T16:26:51.284Z,100695.44
2022-12-12T16:31:52.816Z,100693.38
2022-12-12T16:36:54.167Z,100692.66
2022-12-12T16:41:55.714Z,100693.78
2022-12-12T16:46:57.021Z,100698.19
2022-12-12T16:51:58.368Z,100692.22
2022-12-12T16:56:59.734Z,100694.16
2022-12-12T17:02:01.426Z,100695.75
2022-12-12T17:07:02.754Z,100699.31
2022-12-12T17:12:04.265Z,100699.66
2022-12-12T17:17:05.754Z,100701.59
2022-12-12T17:22:07.223Z,100705.81
2022-12-12T17:27:08.563Z,100708.81
2022-12-12T17:32:09.892Z,100711.97
2022-12-12T17:37:11.203Z,100709.06
2022-12-12T17:42:12.811Z,100714.38
2022-12-12T17:47:14.265Z,100706.00
2022-12-12T17:52:15.597Z,100705.38
2022-12-12T17:57:17.003Z,100706.41
2022-12-12T18:02:18.411Z,100711.63
2022-12-12T18:07:19.790Z,100708.88
2022-12-12T18:12:21.153Z,100701.41
2022-12-12T18:17:22.499Z,100705.09
2022-12-12T18:22:23.892Z,100702.94
2022-12-12T18:27:25.236Z,100710.09
2022-12-12T18:32:26.573Z,100718.75
2022-12-12T18:37:27.888Z,100726.81
2022-12-12T18:42:29.238Z,100716.91
2022-12-12T18:47:30.650Z,100719.66
2022-12-12T18:52:32.660Z,100717.91
2022-12-12T18:57:33.974Z,100724.16
2022-12-12T19:02:38.325Z,100716.38
2022-12-12T19:07:40.732Z,100714.91
2022-12-12T19:12:42.049Z,100719.06
2022-12-12T19:17:43.378Z,100728.47
2022-12-12T19:22:46.394Z,100733.84
2022-12-12T19:27:48.413Z,100726.50
2022-12-12T19:32:49.915Z,100729.72
2022-12-12T19:37:51.290Z,100722.75
2022-12-12T19:42:52.629Z,100734.19
2022-12-12T19:47:53.947Z,100736.94
2022-12-12T19:52:55.273Z,100728.91
2022-12-12T19:57:56.605Z,100727.59
2022-12-12T20:02:58.006Z,100725.13
2022-12-12T20:07:59.562Z,100726.16
2022-12-12T20:13:00.917Z,100723.84
2022-12-12T20:18:02.856Z,100720.25
2022-12-12T20:23:04.208Z,100718.50
2022-12-12T20:28:05.574Z,100730.63
2022-12-12T20:33:06.912Z,100725.34
2022-12-12T20:38:08.318Z,100735.00
2022-12-12T20:43:09.656Z,100730.63
2022-12-12T20:48:10.978Z,100729.09
2022-12-12T20:53:12.493Z,100726.09
2022-12-12T20:58:13.789Z,100727.38
2022-12-12T21:03:15.127Z,100729.84
2022-12-12T21:08:17.630Z,100740.28
2022-12-12T21:13:18.998Z,100728.94
2022-12-12T21:18:20.412Z,100733.47
2022-12-12T21:23:21.756Z,100727.72
2022-12-12T21:28:23.064Z,100733.56
2022-12-12T21:33:26.028Z,100738.44
2022-12-12T21:38:27.356Z,100742.94
2022-12-12T21:43:30.009Z,100738.75
2022-12-12T21:48:31.418Z,100740.66
2022-12-12T21:53:33.709Z,100738.38
2022-12-12T21:58:35.908Z,100740.28
2022-12-12T22:03:37.989Z,100731.91
2022-12-12T22:08:40.503Z,100731.50
2022-12-12T22:13:42.639Z,100731.72
2022-12-12T22:18:44.075Z,100728.44
2022-12-12T22:23:46.313Z,100729.34
2022-12-12T22:28:48.273Z,100730.06
2022-12-12T22:33:53.478Z,100720.91
2022-12-12T22:38:55.410Z,100719.69
2022-12-12T22:43:58.736Z,100715.50
2022-12-12T22:49:01.364Z,100712.22
2022-12-12T22:54:03.880Z,100716.66
2022-12-12T22:59:05.521Z,100711.28
2022-12-12T23:04:07.079Z,100718.72
2022-12-12T23:09:14.293Z,100712.22
2022-12-12T23:14:17.174Z,100696.13
2022-12-12T23:19:20.170Z,100702.22
2022-12-12T23:24:21.528Z,100691.31
2022-12-12T23:29:23.224Z,100688.19
2022-12-12T23:34:24.659Z,100691.50
2022-12-12T23:39:26.502Z,100692.94
2022-12-12T23:44:27.817Z,100686.44
2022-12-12T23:49:29.153Z,100681.34
2022-12-12T23:54:32.136Z,100688.69
2022-12-12T23:59:33.881Z,100681.34
